sensor_id;sensor_type;location;lat;lon;timestamp;temperature;humidity
52859;DHT22;38721;53.098;6.596;2023-06-04T00:01:44;9.90;99.90
52859;DHT22;38721;53.098;6.596;2023-06-04T00:04:11;9.80;99.90
52859;DHT22;38721;53.098;6.596;2023-06-04T00:06:37;9.80;99.90
52859;DHT22;38721;53.098;6.596;2023-06-04T00:09:10;9.70;99.90
52859;DHT22;38721;53.098;6.596;2023-06-04T00:11:35;9.70;99.90
52859;DHT22;38721;53.098;6.596;2023-06-04T00:14:02;9.80;99.90
52859;DHT22;38721;53.098;6.596;2023-06-04T00:16:30;9.90;99.90
52859;DHT22;38721;53.098;6.596;2023-06-04T00:18:56;9.80;99.90
52859;DHT22;38721;53.098;6.596;2023-06-04T00:21:21;9.80;99.90
52859;DHT22;38721;53.098;6.596;2023-06-04T00:23:47;9.70;99.90
52859;DHT22;38721;53.098;6.596;2023-06-04T00:26:13;9.70;99.90
52859;DHT22;38721;53.098;6.596;2023-06-04T00:28:38;9.60;99.90
52859;DHT22;38721;53.098;6.596;2023-06-04T00:31:05;9.60;99.90
52859;DHT22;38721;53.098;6.596;2023-06-04T00:33:31;9.60;99.90
52859;DHT22;38721;53.098;6.596;2023-06-04T00:35:57;9.50;99.90
52859;DHT22;38721;53.098;6.596;2023-06-04T00:38:23;9.50;99.90
52859;DHT22;38721;53.098;6.596;2023-06-04T00:40:49;9.50;99.90
52859;DHT22;38721;53.098;6.596;2023-06-04T00:43:15;9.50;99.90
52859;DHT22;38721;53.098;6.596;2023-06-04T00:45:40;9.30;99.90
52859;DHT22;38721;53.098;6.596;2023-06-04T00:48:07;9.40;99.90
52859;DHT22;38721;53.098;6.596;2023-06-04T00:50:33;9.30;99.90
52859;DHT22;38721;53.098;6.596;2023-06-04T00:53:01;9.50;99.90
52859;DHT22;38721;53.098;6.596;2023-06-04T00:55:27;9.50;99.90
52859;DHT22;38721;53.098;6.596;2023-06-04T00:57:56;9.50;99.90
52859;DHT22;38721;53.098;6.596;2023-06-04T01:00:21;9.50;99.90
52859;DHT22;38721;53.098;6.596;2023-06-04T01:02:49;9.50;99.90
52859;DHT22;38721;53.098;6.596;2023-06-04T01:08:13;9.50;99.90
52859;DHT22;38721;53.098;6.596;2023-06-04T01:10:54;9.50;99.90
52859;DHT22;38721;53.098;6.596;2023-06-04T01:13:20;9.50;99.90
52859;DHT22;38721;53.098;6.596;2023-06-04T01:15:51;9.60;99.90
52859;DHT22;38721;53.098;6.596;2023-06-04T01:18:27;9.60;99.90
52859;DHT22;38721;53.098;6.596;2023-06-04T01:21:08;9.60;99.90
52859;DHT22;38721;53.098;6.596;2023-06-04T01:23:48;9.60;99.90
52859;DHT22;38721;53.098;6.596;2023-06-04T01:26:15;9.50;99.90
52859;DHT22;38721;53.098;6.596;2023-06-04T01:28:42;9.60;99.90
52859;DHT22;38721;53.098;6.596;2023-06-04T01:31:09;9.70;99.90
52859;DHT22;38721;53.098;6.596;2023-06-04T01:33:35;9.60;99.90
52859;DHT22;38721;53.098;6.596;2023-06-04T01:36:01;9.70;99.90
52859;DHT22;38721;53.098;6.596;2023-06-04T01:38:27;9.60;99.90
52859;DHT22;38721;53.098;6.596;2023-06-04T01:40:53;9.60;99.90
52859;DHT22;38721;53.098;6.596;2023-06-04T01:43:27;9.60;99.90
52859;DHT22;38721;53.098;6.596;2023-06-04T01:45:52;9.50;99.90
52859;DHT22;38721;53.098;6.596;2023-06-04T01:48:20;9.40;99.90
52859;DHT22;38721;53.098;6.596;2023-06-04T01:50:45;9.50;99.90
52859;DHT22;38721;53.098;6.596;2023-06-04T01:53:11;9.50;99.90
52859;DHT22;38721;53.098;6.596;2023-06-04T01:55:37;9.50;99.90
52859;DHT22;38721;53.098;6.596;2023-06-04T01:58:03;9.50;99.90
52859;DHT22;38721;53.098;6.596;2023-06-04T02:00:29;9.40;99.90
52859;DHT22;38721;53.098;6.596;2023-06-04T02:02:54;9.60;99.90
52859;DHT22;38721;53.098;6.596;2023-06-04T02:05:22;9.60;99.90
52859;DHT22;38721;53.098;6.596;2023-06-04T02:07:47;9.50;99.90
52859;DHT22;38721;53.098;6.596;2023-06-04T02:10:18;9.50;99.90
52859;DHT22;38721;53.098;6.596;2023-06-04T02:12:56;9.40;99.90
52859;DHT22;38721;53.098;6.596;2023-06-04T02:15:22;9.30;99.90
52859;DHT22;38721;53.098;6.596;2023-06-04T02:17:49;9.30;99.90
52859;DHT22;38721;53.098;6.596;2023-06-04T02:20:16;9.20;99.90
52859;DHT22;38721;53.098;6.596;2023-06-04T02:22:42;9.20;99.90
52859;DHT22;38721;53.098;6.596;2023-06-04T02:25:08;9.10;99.90
52859;DHT22;38721;53.098;6.596;2023-06-04T02:27:36;9.10;99.90
52859;DHT22;38721;53.098;6.596;2023-06-04T02:30:03;9.20;99.90
52859;DHT22;38721;53.098;6.596;2023-06-04T02:32:29;9.20;99.90
52859;DHT22;38721;53.098;6.596;2023-06-04T02:34:55;9.10;99.90
52859;DHT22;38721;53.098;6.596;2023-06-04T02:37:21;9.10;99.90
52859;DHT22;38721;53.098;6.596;2023-06-04T02:39:48;9.20;99.90
52859;DHT22;38721;53.098;6.596;2023-06-04T02:42:13;9.10;99.90
52859;DHT22;38721;53.098;6.596;2023-06-04T02:44:39;9.10;99.90
52859;DHT22;38721;53.098;6.596;2023-06-04T02:47:05;9.00;99.90
52859;DHT22;38721;53.098;6.596;2023-06-04T02:49:31;9.10;99.90
52859;DHT22;38721;53.098;6.596;2023-06-04T02:51:56;9.10;99.90
52859;DHT22;38721;53.098;6.596;2023-06-04T02:54:22;9.20;99.90
52859;DHT22;38721;53.098;6.596;2023-06-04T02:56:50;9.10;99.90
52859;DHT22;38721;53.098;6.596;2023-06-04T02:59:16;8.90;99.90
52859;DHT22;38721;53.098;6.596;2023-06-04T03:01:42;9.00;99.90
52859;DHT22;38721;53.098;6.596;2023-06-04T03:04:08;8.90;99.90
52859;DHT22;38721;53.098;6.596;2023-06-04T03:06:36;8.90;99.90
52859;DHT22;38721;53.098;6.596;2023-06-04T03:09:04;8.90;99.90
52859;DHT22;38721;53.098;6.596;2023-06-04T03:11:30;9.00;99.90
52859;DHT22;38721;53.098;6.596;2023-06-04T03:13:56;8.90;99.90
52859;DHT22;38721;53.098;6.596;2023-06-04T03:16:22;8.90;99.90
52859;DHT22;38721;53.098;6.596;2023-06-04T03:18:47;8.90;99.90
52859;DHT22;38721;53.098;6.596;2023-06-04T03:21:13;8.90;99.90
52859;DHT22;38721;53.098;6.596;2023-06-04T03:23:40;8.90;99.90
52859;DHT22;38721;53.098;6.596;2023-06-04T03:26:06;9.00;99.90
52859;DHT22;38721;53.098;6.596;2023-06-04T03:28:32;9.00;99.90
52859;DHT22;38721;53.098;6.596;2023-06-04T03:31:01;9.00;99.90
52859;DHT22;38721;53.098;6.596;2023-06-04T03:33:27;9.00;99.90
52859;DHT22;38721;53.098;6.596;2023-06-04T03:35:53;9.10;99.90
52859;DHT22;38721;53.098;6.596;2023-06-04T03:38:19;9.20;99.90
52859;DHT22;38721;53.098;6.596;2023-06-04T03:40:45;9.20;99.90
52859;DHT22;38721;53.098;6.596;2023-06-04T03:43:11;9.10;99.90
52859;DHT22;38721;53.098;6.596;2023-06-04T03:45:37;9.10;99.90
52859;DHT22;38721;53.098;6.596;2023-06-04T03:48:05;9.20;99.90
52859;DHT22;38721;53.098;6.596;2023-06-04T03:50:31;9.20;99.90
52859;DHT22;38721;53.098;6.596;2023-06-04T03:52:58;9.20;99.90
52859;DHT22;38721;53.098;6.596;2023-06-04T03:55:23;9.20;99.90
52859;DHT22;38721;53.098;6.596;2023-06-04T03:57:49;9.30;99.90
52859;DHT22;38721;53.098;6.596;2023-06-04T04:00:15;9.30;99.90
52859;DHT22;38721;53.098;6.596;2023-06-04T04:02:44;9.40;99.90
52859;DHT22;38721;53.098;6.596;2023-06-04T04:05:10;9.40;99.90
52859;DHT22;38721;53.098;6.596;2023-06-04T04:07:36;9.50;99.90
52859;DHT22;38721;53.098;6.596;2023-06-04T04:10:02;9.60;99.90
52859;DHT22;38721;53.098;6.596;2023-06-04T04:12:28;9.60;99.90
52859;DHT22;38721;53.098;6.596;2023-06-04T04:14:53;9.70;99.90
52859;DHT22;38721;53.098;6.596;2023-06-04T04:17:19;9.70;99.90
52859;DHT22;38721;53.098;6.596;2023-06-04T04:19:48;9.70;99.90
52859;DHT22;38721;53.098;6.596;2023-06-04T04:22:13;9.70;99.90
52859;DHT22;38721;53.098;6.596;2023-06-04T04:24:43;9.80;99.90
52859;DHT22;38721;53.098;6.596;2023-06-04T04:27:09;9.80;99.90
52859;DHT22;38721;53.098;6.596;2023-06-04T04:29:38;9.90;99.90
52859;DHT22;38721;53.098;6.596;2023-06-04T04:32:04;10.10;99.90
52859;DHT22;38721;53.098;6.596;2023-06-04T04:34:37;10.20;99.90
52859;DHT22;38721;53.098;6.596;2023-06-04T04:37:08;10.40;99.90
52859;DHT22;38721;53.098;6.596;2023-06-04T04:39:35;10.50;99.90
52859;DHT22;38721;53.098;6.596;2023-06-04T04:42:04;10.60;99.90
52859;DHT22;38721;53.098;6.596;2023-06-04T04:44:32;10.70;99.90
52859;DHT22;38721;53.098;6.596;2023-06-04T04:46:58;10.80;99.90
52859;DHT22;38721;53.098;6.596;2023-06-04T04:49:23;10.90;99.90
52859;DHT22;38721;53.098;6.596;2023-06-04T04:51:49;11.00;99.90
52859;DHT22;38721;53.098;6.596;2023-06-04T04:54:17;11.10;99.90
52859;DHT22;38721;53.098;6.596;2023-06-04T04:56:42;11.20;99.90
52859;DHT22;38721;53.098;6.596;2023-06-04T04:59:08;11.30;99.90
52859;DHT22;38721;53.098;6.596;2023-06-04T05:01:34;11.40;99.90
52859;DHT22;38721;53.098;6.596;2023-06-04T05:03:59;11.60;99.90
52859;DHT22;38721;53.098;6.596;2023-06-04T05:06:28;11.60;99.90
52859;DHT22;38721;53.098;6.596;2023-06-04T05:08:54;11.80;99.90
52859;DHT22;38721;53.098;6.596;2023-06-04T05:11:19;11.90;99.90
52859;DHT22;38721;53.098;6.596;2023-06-04T05:13:46;12.00;99.90
52859;DHT22;38721;53.098;6.596;2023-06-04T05:16:12;11.90;99.90
52859;DHT22;38721;53.098;6.596;2023-06-04T05:18:38;12.10;99.90
52859;DHT22;38721;53.098;6.596;2023-06-04T05:21:09;12.20;99.90
52859;DHT22;38721;53.098;6.596;2023-06-04T05:23:38;12.30;99.90
52859;DHT22;38721;53.098;6.596;2023-06-04T05:26:04;12.30;99.90
52859;DHT22;38721;53.098;6.596;2023-06-04T05:28:31;12.40;99.90
52859;DHT22;38721;53.098;6.596;2023-06-04T05:31:01;12.50;99.90
52859;DHT22;38721;53.098;6.596;2023-06-04T05:33:30;12.60;99.90
52859;DHT22;38721;53.098;6.596;2023-06-04T05:35:56;12.80;99.90
52859;DHT22;38721;53.098;6.596;2023-06-04T05:38:26;12.80;99.90
52859;DHT22;38721;53.098;6.596;2023-06-04T05:40:53;12.80;99.90
52859;DHT22;38721;53.098;6.596;2023-06-04T05:43:19;12.80;99.90
52859;DHT22;38721;53.098;6.596;2023-06-04T05:45:45;13.00;99.90
52859;DHT22;38721;53.098;6.596;2023-06-04T05:48:11;13.10;99.90
52859;DHT22;38721;53.098;6.596;2023-06-04T05:50:37;13.20;99.90
52859;DHT22;38721;53.098;6.596;2023-06-04T05:53:03;13.00;99.90
52859;DHT22;38721;53.098;6.596;2023-06-04T05:55:28;13.20;99.90
52859;DHT22;38721;53.098;6.596;2023-06-04T05:57:57;13.30;99.90
52859;DHT22;38721;53.098;6.596;2023-06-04T06:00:23;13.30;99.90
52859;DHT22;38721;53.098;6.596;2023-06-04T06:02:52;13.40;99.90
52859;DHT22;38721;53.098;6.596;2023-06-04T06:05:18;13.30;99.90
52859;DHT22;38721;53.098;6.596;2023-06-04T06:07:45;13.50;99.90
52859;DHT22;38721;53.098;6.596;2023-06-04T06:10:11;13.50;99.90
52859;DHT22;38721;53.098;6.596;2023-06-04T06:12:37;13.70;99.90
52859;DHT22;38721;53.098;6.596;2023-06-04T06:15:03;13.60;99.90
52859;DHT22;38721;53.098;6.596;2023-06-04T06:17:29;13.60;99.90
52859;DHT22;38721;53.098;6.596;2023-06-04T06:19:55;13.90;99.90
52859;DHT22;38721;53.098;6.596;2023-06-04T06:22:21;13.80;99.90
52859;DHT22;38721;53.098;6.596;2023-06-04T06:24:47;13.90;99.90
52859;DHT22;38721;53.098;6.596;2023-06-04T06:27:16;13.90;99.90
52859;DHT22;38721;53.098;6.596;2023-06-04T06:29:43;14.00;99.90
52859;DHT22;38721;53.098;6.596;2023-06-04T06:32:12;14.20;99.90
52859;DHT22;38721;53.098;6.596;2023-06-04T06:34:38;14.20;99.90
52859;DHT22;38721;53.098;6.596;2023-06-04T06:37:04;14.30;99.90
52859;DHT22;38721;53.098;6.596;2023-06-04T06:39:31;14.30;99.90
52859;DHT22;38721;53.098;6.596;2023-06-04T06:41:57;14.50;99.90
52859;DHT22;38721;53.098;6.596;2023-06-04T06:44:23;14.60;99.90
52859;DHT22;38721;53.098;6.596;2023-06-04T06:46:48;14.50;99.90
52859;DHT22;38721;53.098;6.596;2023-06-04T06:49:15;14.60;99.90
52859;DHT22;38721;53.098;6.596;2023-06-04T06:51:41;14.80;99.90
52859;DHT22;38721;53.098;6.596;2023-06-04T06:54:08;14.90;99.90
52859;DHT22;38721;53.098;6.596;2023-06-04T06:56:34;14.90;99.90
52859;DHT22;38721;53.098;6.596;2023-06-04T06:58:59;14.80;99.90
52859;DHT22;38721;53.098;6.596;2023-06-04T07:01:26;15.10;99.90
52859;DHT22;38721;53.098;6.596;2023-06-04T07:03:52;15.00;99.90
52859;DHT22;38721;53.098;6.596;2023-06-04T07:06:17;14.90;99.90
52859;DHT22;38721;53.098;6.596;2023-06-04T07:08:43;15.00;99.90
52859;DHT22;38721;53.098;6.596;2023-06-04T07:11:09;15.20;99.90
52859;DHT22;38721;53.098;6.596;2023-06-04T07:13:38;15.40;99.90
52859;DHT22;38721;53.098;6.596;2023-06-04T07:16:04;15.40;99.90
52859;DHT22;38721;53.098;6.596;2023-06-04T07:18:30;15.40;99.90
52859;DHT22;38721;53.098;6.596;2023-06-04T07:20:55;15.40;99.90
52859;DHT22;38721;53.098;6.596;2023-06-04T07:23:21;15.70;99.90
52859;DHT22;38721;53.098;6.596;2023-06-04T07:25:47;15.70;99.90
52859;DHT22;38721;53.098;6.596;2023-06-04T07:28:13;15.60;99.90
52859;DHT22;38721;53.098;6.596;2023-06-04T07:30:38;15.40;99.90
52859;DHT22;38721;53.098;6.596;2023-06-04T07:33:04;15.50;99.90
52859;DHT22;38721;53.098;6.596;2023-06-04T07:35:30;15.50;99.90
52859;DHT22;38721;53.098;6.596;2023-06-04T07:37:55;15.40;99.90
52859;DHT22;38721;53.098;6.596;2023-06-04T07:40:21;15.70;99.90
52859;DHT22;38721;53.098;6.596;2023-06-04T07:42:47;16.00;99.90
52859;DHT22;38721;53.098;6.596;2023-06-04T07:45:15;16.00;99.90
52859;DHT22;38721;53.098;6.596;2023-06-04T07:47:42;16.10;99.90
52859;DHT22;38721;53.098;6.596;2023-06-04T07:50:08;16.30;99.90
52859;DHT22;38721;53.098;6.596;2023-06-04T07:52:34;16.20;99.90
52859;DHT22;38721;53.098;6.596;2023-06-04T07:55:00;16.50;99.90
52859;DHT22;38721;53.098;6.596;2023-06-04T07:57:26;16.00;99.90
52859;DHT22;38721;53.098;6.596;2023-06-04T07:59:51;16.30;99.90
52859;DHT22;38721;53.098;6.596;2023-06-04T08:02:18;16.50;99.90
52859;DHT22;38721;53.098;6.596;2023-06-04T08:04:44;16.30;99.90
52859;DHT22;38721;53.098;6.596;2023-06-04T08:07:11;16.50;30.10
52859;DHT22;38721;53.098;6.596;2023-06-04T08:09:40;16.50;1.00
52859;DHT22;38721;53.098;6.596;2023-06-04T08:12:05;16.60;99.90
52859;DHT22;38721;53.098;6.596;2023-06-04T08:14:32;16.80;72.10
52859;DHT22;38721;53.098;6.596;2023-06-04T08:16:58;16.60;99.90
52859;DHT22;38721;53.098;6.596;2023-06-04T08:19:23;16.40;99.90
52859;DHT22;38721;53.098;6.596;2023-06-04T08:21:49;16.50;99.90
52859;DHT22;38721;53.098;6.596;2023-06-04T08:24:16;16.40;99.90
52859;DHT22;38721;53.098;6.596;2023-06-04T08:26:44;16.80;1.00
52859;DHT22;38721;53.098;6.596;2023-06-04T08:29:10;16.70;1.00
52859;DHT22;38721;53.098;6.596;2023-06-04T08:31:35;16.40;99.90
52859;DHT22;38721;53.098;6.596;2023-06-04T08:34:01;16.80;1.00
52859;DHT22;38721;53.098;6.596;2023-06-04T08:36:36;17.10;99.90
52859;DHT22;38721;53.098;6.596;2023-06-04T08:39:02;17.20;1.00
52859;DHT22;38721;53.098;6.596;2023-06-04T08:41:30;17.30;99.90
52859;DHT22;38721;53.098;6.596;2023-06-04T08:43:57;17.30;1.00
52859;DHT22;38721;53.098;6.596;2023-06-04T08:46:23;16.90;75.60
52859;DHT22;38721;53.098;6.596;2023-06-04T08:48:51;17.30;1.00
52859;DHT22;38721;53.098;6.596;2023-06-04T08:51:17;17.60;99.90
52859;DHT22;38721;53.098;6.596;2023-06-04T08:53:43;17.70;1.00
52859;DHT22;38721;53.098;6.596;2023-06-04T08:56:13;18.00;99.90
52859;DHT22;38721;53.098;6.596;2023-06-04T08:58:40;18.00;99.90
52859;DHT22;38721;53.098;6.596;2023-06-04T09:01:09;17.70;1.00
52859;DHT22;38721;53.098;6.596;2023-06-04T09:03:36;17.60;99.90
52859;DHT22;38721;53.098;6.596;2023-06-04T09:06:03;18.00;1.00
52859;DHT22;38721;53.098;6.596;2023-06-04T09:08:32;17.90;1.00
52859;DHT22;38721;53.098;6.596;2023-06-04T09:10:58;17.70;99.90
52859;DHT22;38721;53.098;6.596;2023-06-04T09:13:28;17.60;1.00
52859;DHT22;38721;53.098;6.596;2023-06-04T09:16:03;18.30;99.90
52859;DHT22;38721;53.098;6.596;2023-06-04T09:18:29;18.50;99.90
52859;DHT22;38721;53.098;6.596;2023-06-04T09:21:08;18.20;42.60
52859;DHT22;38721;53.098;6.596;2023-06-04T09:23:44;17.80;1.00
52859;DHT22;38721;53.098;6.596;2023-06-04T09:26:10;17.70;1.00
52859;DHT22;38721;53.098;6.596;2023-06-04T09:28:44;18.10;99.90
52859;DHT22;38721;53.098;6.596;2023-06-04T09:31:16;17.90;99.90
52859;DHT22;38721;53.098;6.596;2023-06-04T09:33:46;18.30;99.90
52859;DHT22;38721;53.098;6.596;2023-06-04T09:36:12;18.20;99.90
52859;DHT22;38721;53.098;6.596;2023-06-04T09:38:39;18.70;99.90
52859;DHT22;38721;53.098;6.596;2023-06-04T09:41:11;18.90;1.00
52859;DHT22;38721;53.098;6.596;2023-06-04T09:43:37;18.70;99.90
52859;DHT22;38721;53.098;6.596;2023-06-04T09:46:13;19.30;99.90
52859;DHT22;38721;53.098;6.596;2023-06-04T09:48:39;19.40;99.90
52859;DHT22;38721;53.098;6.596;2023-06-04T09:51:13;19.60;99.90
52859;DHT22;38721;53.098;6.596;2023-06-04T09:53:41;19.50;1.00
52859;DHT22;38721;53.098;6.596;2023-06-04T09:56:07;19.70;1.00
52859;DHT22;38721;53.098;6.596;2023-06-04T09:58:37;19.60;1.00
52859;DHT22;38721;53.098;6.596;2023-06-04T10:01:06;18.70;1.00
52859;DHT22;38721;53.098;6.596;2023-06-04T10:03:34;18.80;1.00
52859;DHT22;38721;53.098;6.596;2023-06-04T10:06:03;18.90;1.00
52859;DHT22;38721;53.098;6.596;2023-06-04T10:08:30;19.00;99.90
52859;DHT22;38721;53.098;6.596;2023-06-04T10:10:59;19.20;99.90
52859;DHT22;38721;53.098;6.596;2023-06-04T10:13:31;19.50;99.90
52859;DHT22;38721;53.098;6.596;2023-06-04T10:15:57;19.70;99.90
52859;DHT22;38721;53.098;6.596;2023-06-04T10:18:24;19.70;99.90
52859;DHT22;38721;53.098;6.596;2023-06-04T10:20:54;19.30;99.90
52859;DHT22;38721;53.098;6.596;2023-06-04T10:23:21;19.50;99.90
52859;DHT22;38721;53.098;6.596;2023-06-04T10:25:49;19.30;99.90
52859;DHT22;38721;53.098;6.596;2023-06-04T10:28:18;19.60;99.90
52859;DHT22;38721;53.098;6.596;2023-06-04T10:30:45;19.60;99.90
52859;DHT22;38721;53.098;6.596;2023-06-04T10:33:12;20.30;99.90
52859;DHT22;38721;53.098;6.596;2023-06-04T10:35:38;20.10;99.90
52859;DHT22;38721;53.098;6.596;2023-06-04T10:38:11;19.60;99.90
52859;DHT22;38721;53.098;6.596;2023-06-04T10:40:38;19.30;99.90
52859;DHT22;38721;53.098;6.596;2023-06-04T10:43:09;20.00;99.90
52859;DHT22;38721;53.098;6.596;2023-06-04T10:45:36;19.90;99.90
52859;DHT22;38721;53.098;6.596;2023-06-04T10:48:06;20.20;99.90
52859;DHT22;38721;53.098;6.596;2023-06-04T10:50:33;20.60;97.70
52859;DHT22;38721;53.098;6.596;2023-06-04T10:52:59;20.20;1.00
52859;DHT22;38721;53.098;6.596;2023-06-04T10:55:29;20.50;50.50
52859;DHT22;38721;53.098;6.596;2023-06-04T10:57:59;21.10;82.60
52859;DHT22;38721;53.098;6.596;2023-06-04T11:00:39;21.10;34.70
52859;DHT22;38721;53.098;6.596;2023-06-04T11:03:09;21.10;11.90
52859;DHT22;38721;53.098;6.596;2023-06-04T11:05:41;20.10;1.00
52859;DHT22;38721;53.098;6.596;2023-06-04T11:08:12;19.90;1.00
52859;DHT22;38721;53.098;6.596;2023-06-04T11:10:41;20.00;99.90
52859;DHT22;38721;53.098;6.596;2023-06-04T11:13:07;20.90;74.00
52859;DHT22;38721;53.098;6.596;2023-06-04T11:15:41;20.70;1.00
52859;DHT22;38721;53.098;6.596;2023-06-04T11:18:20;20.50;1.00
52859;DHT22;38721;53.098;6.596;2023-06-04T11:20:58;21.50;1.00
52859;DHT22;38721;53.098;6.596;2023-06-04T11:23:24;21.70;1.00
52859;DHT22;38721;53.098;6.596;2023-06-04T11:25:52;21.90;1.00
52859;DHT22;38721;53.098;6.596;2023-06-04T11:28:18;22.10;1.00
52859;DHT22;38721;53.098;6.596;2023-06-04T11:30:58;20.50;99.90
52859;DHT22;38721;53.098;6.596;2023-06-04T11:33:24;20.30;99.90
52859;DHT22;38721;53.098;6.596;2023-06-04T11:35:50;21.40;1.00
52859;DHT22;38721;53.098;6.596;2023-06-04T11:38:16;21.60;99.90
52859;DHT22;38721;53.098;6.596;2023-06-04T11:40:41;22.00;99.90
52859;DHT22;38721;53.098;6.596;2023-06-04T11:43:12;22.50;99.90
52859;DHT22;38721;53.098;6.596;2023-06-04T11:45:38;22.00;99.90
52859;DHT22;38721;53.098;6.596;2023-06-04T11:48:11;22.00;99.90
52859;DHT22;38721;53.098;6.596;2023-06-04T11:50:37;21.20;99.90
52859;DHT22;38721;53.098;6.596;2023-06-04T11:53:03;21.60;99.90
52859;DHT22;38721;53.098;6.596;2023-06-04T11:55:28;21.00;99.90
52859;DHT22;38721;53.098;6.596;2023-06-04T11:57:58;20.80;99.90
52859;DHT22;38721;53.098;6.596;2023-06-04T12:00:24;20.70;99.90
52859;DHT22;38721;53.098;6.596;2023-06-04T12:02:51;21.70;99.90
52859;DHT22;38721;53.098;6.596;2023-06-04T12:05:18;22.50;99.90
52859;DHT22;38721;53.098;6.596;2023-06-04T12:07:45;22.50;99.90
52859;DHT22;38721;53.098;6.596;2023-06-04T12:10:11;21.60;99.90
52859;DHT22;38721;53.098;6.596;2023-06-04T12:12:37;21.60;99.90
52859;DHT22;38721;53.098;6.596;2023-06-04T12:15:04;21.80;99.90
52859;DHT22;38721;53.098;6.596;2023-06-04T12:17:31;22.60;99.90
52859;DHT22;38721;53.098;6.596;2023-06-04T12:19:57;22.50;99.90
52859;DHT22;38721;53.098;6.596;2023-06-04T12:22:24;22.00;99.90
52859;DHT22;38721;53.098;6.596;2023-06-04T12:24:53;22.80;99.90
52859;DHT22;38721;53.098;6.596;2023-06-04T12:27:20;21.50;99.90
52859;DHT22;38721;53.098;6.596;2023-06-04T12:29:58;22.30;99.90
52859;DHT22;38721;53.098;6.596;2023-06-04T12:32:24;21.70;99.90
52859;DHT22;38721;53.098;6.596;2023-06-04T12:34:50;21.80;99.90
52859;DHT22;38721;53.098;6.596;2023-06-04T12:37:16;22.70;99.90
52859;DHT22;38721;53.098;6.596;2023-06-04T12:39:42;22.10;99.90
52859;DHT22;38721;53.098;6.596;2023-06-04T12:42:09;21.70;99.90
52859;DHT22;38721;53.098;6.596;2023-06-04T12:44:36;22.90;99.90
52859;DHT22;38721;53.098;6.596;2023-06-04T12:47:02;23.10;99.90
52859;DHT22;38721;53.098;6.596;2023-06-04T12:49:28;23.60;99.90
52859;DHT22;38721;53.098;6.596;2023-06-04T12:51:54;21.90;99.90
52859;DHT22;38721;53.098;6.596;2023-06-04T12:54:20;21.50;99.90
52859;DHT22;38721;53.098;6.596;2023-06-04T12:56:45;22.10;99.90
52859;DHT22;38721;53.098;6.596;2023-06-04T12:59:11;22.50;99.90
52859;DHT22;38721;53.098;6.596;2023-06-04T13:01:40;22.60;99.90
52859;DHT22;38721;53.098;6.596;2023-06-04T13:04:06;22.20;99.90
52859;DHT22;38721;53.098;6.596;2023-06-04T13:06:34;22.40;99.90
52859;DHT22;38721;53.098;6.596;2023-06-04T13:09:01;21.60;99.90
52859;DHT22;38721;53.098;6.596;2023-06-04T13:11:27;21.80;99.90
52859;DHT22;38721;53.098;6.596;2023-06-04T13:13:53;22.50;99.90
52859;DHT22;38721;53.098;6.596;2023-06-04T13:16:18;21.90;99.90
52859;DHT22;38721;53.098;6.596;2023-06-04T13:18:44;21.90;99.90
52859;DHT22;38721;53.098;6.596;2023-06-04T13:21:10;22.50;99.90
52859;DHT22;38721;53.098;6.596;2023-06-04T13:23:36;22.80;99.90
52859;DHT22;38721;53.098;6.596;2023-06-04T13:26:01;22.40;99.90
52859;DHT22;38721;53.098;6.596;2023-06-04T13:28:27;23.80;99.90
52859;DHT22;38721;53.098;6.596;2023-06-04T13:30:53;23.10;99.90
52859;DHT22;38721;53.098;6.596;2023-06-04T13:33:18;24.20;99.90
52859;DHT22;38721;53.098;6.596;2023-06-04T13:35:46;21.50;99.90
52859;DHT22;38721;53.098;6.596;2023-06-04T13:38:12;22.50;99.90
52859;DHT22;38721;53.098;6.596;2023-06-04T13:40:38;22.50;99.90
52859;DHT22;38721;53.098;6.596;2023-06-04T13:43:05;22.80;99.90
52859;DHT22;38721;53.098;6.596;2023-06-04T13:45:31;22.80;99.90
52859;DHT22;38721;53.098;6.596;2023-06-04T13:47:56;23.40;99.90
52859;DHT22;38721;53.098;6.596;2023-06-04T13:50:28;21.70;99.90
52859;DHT22;38721;53.098;6.596;2023-06-04T13:52:56;22.40;99.90
52859;DHT22;38721;53.098;6.596;2023-06-04T13:55:22;22.20;99.90
52859;DHT22;38721;53.098;6.596;2023-06-04T13:57:48;22.10;99.90
52859;DHT22;38721;53.098;6.596;2023-06-04T14:00:14;23.80;99.90
52859;DHT22;38721;53.098;6.596;2023-06-04T14:02:40;22.70;99.90
52859;DHT22;38721;53.098;6.596;2023-06-04T14:05:06;22.60;99.90
52859;DHT22;38721;53.098;6.596;2023-06-04T14:07:32;21.90;99.90
52859;DHT22;38721;53.098;6.596;2023-06-04T14:09:58;21.80;99.90
52859;DHT22;38721;53.098;6.596;2023-06-04T14:12:24;21.20;99.90
52859;DHT22;38721;53.098;6.596;2023-06-04T14:14:50;21.60;99.90
52859;DHT22;38721;53.098;6.596;2023-06-04T14:17:16;22.20;99.90
52859;DHT22;38721;53.098;6.596;2023-06-04T14:19:41;21.70;99.90
52859;DHT22;38721;53.098;6.596;2023-06-04T14:22:12;21.40;99.90
52859;DHT22;38721;53.098;6.596;2023-06-04T14:24:41;20.60;99.90
52859;DHT22;38721;53.098;6.596;2023-06-04T14:27:07;21.70;99.90
52859;DHT22;38721;53.098;6.596;2023-06-04T14:29:35;21.80;99.90
52859;DHT22;38721;53.098;6.596;2023-06-04T14:32:01;21.20;99.90
52859;DHT22;38721;53.098;6.596;2023-06-04T14:34:30;21.60;99.90
52859;DHT22;38721;53.098;6.596;2023-06-04T14:36:58;21.90;99.90
52859;DHT22;38721;53.098;6.596;2023-06-04T14:39:25;20.80;99.90
52859;DHT22;38721;53.098;6.596;2023-06-04T14:41:51;21.00;99.90
52859;DHT22;38721;53.098;6.596;2023-06-04T14:44:18;21.40;99.90
52859;DHT22;38721;53.098;6.596;2023-06-04T14:46:44;20.60;99.90
52859;DHT22;38721;53.098;6.596;2023-06-04T14:49:10;20.40;99.90
52859;DHT22;38721;53.098;6.596;2023-06-04T14:51:35;20.80;99.90
52859;DHT22;38721;53.098;6.596;2023-06-04T14:54:02;20.70;99.90
52859;DHT22;38721;53.098;6.596;2023-06-04T14:56:27;22.00;99.90
52859;DHT22;38721;53.098;6.596;2023-06-04T14:58:54;22.90;99.90
52859;DHT22;38721;53.098;6.596;2023-06-04T15:01:20;22.40;99.90
52859;DHT22;38721;53.098;6.596;2023-06-04T15:03:48;21.70;99.90
52859;DHT22;38721;53.098;6.596;2023-06-04T15:06:13;21.00;99.90
52859;DHT22;38721;53.098;6.596;2023-06-04T15:08:39;22.00;99.90
52859;DHT22;38721;53.098;6.596;2023-06-04T15:11:05;21.80;99.90
52859;DHT22;38721;53.098;6.596;2023-06-04T15:13:30;21.80;99.90
52859;DHT22;38721;53.098;6.596;2023-06-04T15:15:56;21.40;99.90
52859;DHT22;38721;53.098;6.596;2023-06-04T15:18:22;21.80;99.90
52859;DHT22;38721;53.098;6.596;2023-06-04T15:20:47;21.70;99.90
52859;DHT22;38721;53.098;6.596;2023-06-04T15:23:13;22.10;99.90
52859;DHT22;38721;53.098;6.596;2023-06-04T15:25:41;22.50;99.90
52859;DHT22;38721;53.098;6.596;2023-06-04T15:28:07;23.90;99.90
52859;DHT22;38721;53.098;6.596;2023-06-04T15:30:32;23.20;99.90
52859;DHT22;38721;53.098;6.596;2023-06-04T15:32:58;22.60;99.90
52859;DHT22;38721;53.098;6.596;2023-06-04T15:35:26;21.30;99.90
52859;DHT22;38721;53.098;6.596;2023-06-04T15:37:52;23.20;99.90
52859;DHT22;38721;53.098;6.596;2023-06-04T15:40:20;23.30;99.90